Castlederg, United Kingdom
Current Conditions -  °F | °C
As of 2:50 PM on Saturday 22 Nov 2014 (Local Time) from EGAE Reporting Station
Scattered Clouds Scattered Clouds  
Wind Chill: 10°   Ceiling: Unl
Heat Index: 10°   Visibility: 6mi
Dew Point:   Wind: 9mph
Humidity: 82%   Direction: 240°WSW
Pressure: 29.8"   Gusts: NA
Location:  54.7°N, 7.6°W
Report Text: EGAE 221450Z 24008KT 9999 FEW018 SCT041 10/07 Q1009
Loading
Personal Weather Stations






























Interactive Weather Map New forecast layout! Learn more

10-Day Weather Forecast

Advertisements
Track Severe Weather on mobile